Terminal Aerodrome Forecast
Issued by NWS Binghamton, NY

Home | Current Version | Previous Version | Text Only | Print | Product List | Glossary On
Versions: 1 2 3 4 5 6 7 8 9 10 11 12 13 14 15 16 17 18 19 20 21 22 23
000
FTUS41 KBGM 221900 AAA
TAFSYR
TAF AMD
KSYR 221903Z 2219/2318 33010KT P6SM OVC035
     FM222200 36010KT P6SM SCT025 OVC035
      TEMPO 2302/2305 5SM -SHRA
     FM230500 34008KT 5SM -SHRA SCT025 OVC035
     FM231200 36011KT 5SM -SHRA BR OVC025=

USA.gov is the U.S. government's official web portal to all federal, state and local government web resources and services.